TimeMST,TemperatureF,Dew PointF,Humidity,Sea Level PressureIn,VisibilityMPH,Wind Direction,Wind SpeedMPH,Gust SpeedMPH,PrecipitationIn,Events,Conditions,WindDirDegrees,DateUTC
12:53 AM,35.1,25.0,67,30.32,10.0,Calm,Calm,-,N/A,,Clear,0,2013-02-16 07:53:00
1:53 AM,30.0,24.1,79,30.32,10.0,Calm,Calm,-,N/A,,Clear,0,2013-02-16 08:53:00
2:53 AM,28.0,23.0,81,30.30,10.0,Calm,Calm,-,N/A,,Clear,0,2013-02-16 09:53:00
3:53 AM,26.1,21.9,84,30.31,10.0,West,3.5,-,N/A,,Clear,270,2013-02-16 10:53:00
4:53 AM,27.0,21.9,81,30.29,10.0,Calm,Calm,-,N/A,,Clear,0,2013-02-16 11:53:00
5:53 AM,25.0,21.0,85,30.30,10.0,Calm,Calm,-,N/A,,Clear,0,2013-02-16 12:53:00
6:53 AM,25.0,21.0,85,30.29,10.0,Calm,Calm,-,N/A,,Clear,0,2013-02-16 13:53:00
7:53 AM,25.0,21.0,85,30.28,10.0,Calm,Calm,-,N/A,,Clear,0,2013-02-16 14:53:00
8:53 AM,28.9,24.1,82,30.26,10.0,NW,3.5,-,N/A,,Clear,320,2013-02-16 15:53:00
9:53 AM,32.0,25.0,75,30.22,10.0,NNW,3.5,-,N/A,,Clear,340,2013-02-16 16:53:00
10:53 AM,35.1,24.1,64,30.21,10.0,Calm,Calm,-,N/A,,Clear,0,2013-02-16 17:53:00
11:53 AM,39.0,25.0,57,30.17,10.0,WNW,4.6,-,N/A,,Clear,290,2013-02-16 18:53:00
12:53 PM,43.0,26.1,51,30.11,10.0,Calm,Calm,-,N/A,,Clear,0,2013-02-16 19:53:00
1:53 PM,45.0,27.0,49,30.07,10.0,Calm,Calm,-,N/A,,Clear,0,2013-02-16 20:53:00
2:53 PM,46.9,27.0,46,30.02,10.0,ESE,5.8,-,N/A,,Clear,110,2013-02-16 21:53:00
3:53 PM,48.0,26.1,42,29.99,10.0,SE,8.1,-,N/A,,Clear,140,2013-02-16 22:53:00
4:53 PM,46.9,27.0,46,29.97,10.0,Calm,Calm,-,N/A,,Clear,0,2013-02-16 23:53:00
5:53 PM,45.0,26.1,48,29.96,10.0,SSW,4.6,-,N/A,,Scattered Clouds,210,2013-02-17 00:53:00
6:53 PM,41.0,26.1,55,29.94,10.0,South,4.6,-,N/A,,Scattered Clouds,170,2013-02-17 01:53:00
7:53 PM,42.1,26.1,53,29.89,10.0,Calm,Calm,-,N/A,,Overcast,0,2013-02-17 02:53:00
8:53 PM,35.1,26.1,70,29.89,10.0,West,4.6,-,N/A,,Clear,260,2013-02-17 03:53:00
9:53 PM,35.1,25.0,67,29.85,10.0,WNW,3.5,-,N/A,,Clear,300,2013-02-17 04:53:00
10:53 PM,35.1,26.1,70,29.86,10.0,West,16.1,25.3,0.00,Snow,Light Snow,280,2013-02-17 05:53:00
11:53 PM,37.0,28.0,70,29.86,10.0,WSW,16.1,25.3,0.00,,Overcast,250,2013-02-17 06:53:00